Antioch, SC

7:28 AM EST on January 27, 2015 (GMT -0500)
Brailsford Road Camden SC | Change Station
CLOSE
Current Station
Personal Weather Station
Location: Camden, SC
Elevation: 253 ft
Nearby Weather Stations

Elev 253 ft 34.27 °N, 80.64 °W | Updated 4 seconds ago

Clear
Clear
27.3 °F
Feels Like 27 °F
N
0.0
Wind Variable Wind from SW
Gusts 0.0 mph

Today
High -- | Low -- °F
--% Chance of Precip.
Yesterday
High -- | Low -- °F
Precip. -- in
7:23 AM 5:47 PM
First Quarter, 53% visible
Pressure 29.85 in
Visibility 10.0 miles
Clouds Clear
Windchill 27 °F
Dew Point 24 °F
Humidity 88%
Rainfall 0.00 in
Snow Depth Not available.
UV 0.0 out of 12
Pollen 3.10 out of 12
Air Quality Not available.
Flu Activity Not available.
METAR KCDN 271235Z AUTO 00000KT 10SM CLR M03/M05 A2985 RMK AO2 TSNO

More Conditions Fewer Conditions

Pressure 29.85 in
Visibility 10.0 miles
Clouds Clear
Windchill 27 °F
Dew Point 24 °F
Humidity 88%
Rainfall 0.00 in
Snow Depth Not available.
UV 0.0 out of 12
Pollen 3.10 out of 12
Air Quality Not available.
Flu Activity Not available.
METAR KCDN 271235Z AUTO 00000KT 10SM CLR M03/M05 A2985 RMK AO2 TSNO

More Conditions Fewer Conditions

10-Day Weather Forecast

Almanac

Astronomy

Jan. 27, 2015 Rise Set
Actual Time
Civil Twilight
Nautical Twilight
Astronomical Twilight
Moon
Length of Visible Light
Length of Day
Tomorrow will be .
, % of the Moon is Illuminated

Today's Extremes

State Highs State Lows

Community

WunderPhotos

Upload Photos

1,790,579 photos uploaded!

WunderBlogs® & News

Nearby

Air Quality

  Air Quality AQ Index Pollutant
Not available.

Snow Depth

Station Depth Elevation

Earthquake Activity

City Distance Mag. Time & Date
Minimum magnitude displayed is 2.5.

Coastal Water Temperatures

Place Temperature

Nearby Weather Stations